Main page
METAR-TAF:

METAR-TAF

Airports :

Cruzeiro do Sul International Airport

Cruzeiro do Sul, Acre, Brazil

latitude: 07-38S, longitude: 072-40W, elevation: 170 m

Current weather observation

The report was made 30 minutes ago, at 14:00 UTC
Wind 5 kt from the South/Southeast
Temperature 24°C
Humidity 74%
Pressure 1021 hPa
Visibility 10 km or more
no clouds below 1500 m and no cumulonimbus

METAR: SBCZ 171400Z 15005KT CAVOK 24/19 Q1021

Time: 09:30 (14:30 UTC)

Forecast

The report was made 6 hours and 25 minutes ago, at 08:05 UTC
Forecast valid from 17 at 12 UTC to 18 at 12 UTC
Wind 10 kt from the Southeast
Visibility 10 km or more
no clouds below 1500 m and no cumulonimbus
Becoming
from 17 at 23 UTC to 18 at 01 UTC
Wind kt from the North
Becoming
from 18 at 10 UTC to 18 at 12 UTC
Wind 5 kt from the South

TAF: SBCZ 170805Z 1712/1812 14010KT CAVOK TX30/1719Z TN20/1806Z BECMG 1723/1801 00000KT BECMG 1810/1812 18005KT RMK PHD

Weather observations and forecasts of more than 4000 airports (METAR and TAF reports).

The available stations are represented by yellow and red dots on the map.

Hover mouse over dot to see the name of the station.

Then click to see weather observations and forecasts.

To change the map : click on the green buttons with a black cross to zoom in, on the green button with a dash to zoom out, or on the green arrows for adjacent maps.


METAR-TAF: